LPMAGOOY

Guest
Details From LPMA - Madeira
To GOOY - Dakar Leopold Sedar Senghor Intl
Flight Number -
Tags generated
Created
Modified
Stats Distance 1,103 nm / 2,044 km
Max Altitude 35,000 ft / 10,668 m
Waypoints 15
Social Downloads 1
Likes 0
Share VATSIM

Download

Looking for another format? Having issues loading an existing format? Contact us
Advertisement - Login to hide

Notes

Basic altitude profile: - Ascent Rate: 2500ft/min - Ascent Speed: 250kts - Cruise Altitude: 35000ft - Cruise Speed: 420kts - Descent Rate: 1500ft/min - Descent Speed: 250kts Options: - Use NATs: yes - Use PACOTS: yes - Use low airways: yes - Use high airways: yes

Route

LPMA BIMBO UN729 GDV B600 DKH UB600G MAURI A600F PE UB600 LIMAX B600F YF GOOY

ID Type Via Altitude Latitude Longitude Leg Dist Tot Dist Heading (true) Name
O LPMA APT - 0 ft / 0 m 32.69770˚ -16.77445˚ - 0 nm - Madeira
BIMBO FIX - 29,500 ft / 8,992 m 31.42145˚ -16.03287˚ 85 nm 85 nm 154° / 154° -
GURKA FIX UN729 (AWY-HI) 35,000 ft / 10,668 m 30.43400˚ -15.85026˚ 60 nm 145 nm 171° / 171° -
KASAS FIX UN729 (AWY-HI) 35,000 ft / 10,668 m 29.98642˚ -15.76872˚ 27 nm 172 nm 171° / 171° -
NERVO FIX UN729 (AWY-HI) 35,000 ft / 10,668 m 29.33858˚ -15.65201˚ 39 nm 212 nm 171° / 171° -
GDV VOR UN729 (AWY-HI) 35,000 ft / 10,668 m 28.07708˚ -15.42899˚ 76 nm 288 nm 171° / 171° GRAN CANARIA VOR-DME
ROYAL FIX B600 (AWY-HI) 24,500 ft / 7,468 m 25.00000˚ -15.78674˚ 185 nm 474 nm 186° / 186° -
DKH VOR B600 (AWY-HI) 24,500 ft / 7,468 m 23.73977˚ -15.92632˚ 76 nm 550 nm 186° / 186° DAKHLA VOR-DME
LOLOS FIX UB600G (AWY-HI) 34,000 ft / 10,363 m 21.85000˚ -16.66667˚ 120 nm 671 nm 200° / 200° -
MAURI FIX UB600G (AWY-HI) 34,000 ft / 10,363 m 21.33333˚ -16.86667˚ 32 nm 704 nm 200° / 200° -
PE VOR A600F (AWY-LO) 24,500 ft / 7,468 m 20.91444˚ -17.03497˚ 26 nm 731 nm 201° / 201° NOUADHIBOU VOR-DME
NULET FIX UB600 (AWY-HI) 34,000 ft / 10,363 m 18.41806˚ -17.21667˚ 150 nm 881 nm 184° / 184° -
LIMAX FIX UB600 (AWY-HI) 26,000 ft / 7,925 m 16.74861˚ -17.33528˚ 100 nm 981 nm 184° / 184° -
YF VOR B600F (AWY-LO) 5,500 ft / 1,676 m 14.74483˚ -17.47478˚ 120 nm 1102 nm 184° / 184° DAKAR VOR-DME
O GOOY APT - 0 ft / 0 m 14.73971˚ -17.49023˚ 0 nm 1103 nm 251° / 251° Dakar Leopold Sedar Senghor Intl

Altitude Profile

Advertisement - Login to hide

Weather


0- 5 10 15 20 25 30 35+ Temperature / ° C

Clouds and Precipitation
Forecast for 2018-05-27 18:00 UTC. Updated an hour ago

Ground ~20,000 ft ~40,000 ft Winds

LPMA

Details ICAO LPMA (FNC)
Name Madeira
Region Portugal
Timezone Atlantic/Madeira (UTC+1.0)
Stats Elevation 192 ft / 59 m (AMSL)
Location 32.697704° -16.774449°
Runways 1
Magnetic Variation 4.926° W

METAR

LPMA 271800Z 01009KT 330V050 9999 SCT016 SCT030 18/12 Q1023

Decode

TAF

TAF LPMA 271700Z 2718/2818 01010KT 9999 SCT016 SCT030 PROB30 TEMPO 2718/2724 36015G25KT

Decode

Departure Runways

ID Width Length Bearing (true) Bearing (mag) Surface Threshold Offset Overrun Length
05 141 ft / 43 m 8,683 ft / 2,647 m 42.98° 47.91° Asphalt 472 ft / 144 m 0 ft / 0 m
23 141 ft / 43 m 8,683 ft / 2,647 m 222.99° 227.92° Asphalt 466 ft / 142 m 0 ft / 0 m

GOOY

Details ICAO GOOY (DKR)
Name Dakar Leopold Sedar Senghor Intl
Region Senegal
Timezone Africa/Dakar (UTC+0.0)
Stats Elevation 85 ft / 26 m (AMSL)
Location 14.739711° -17.490226°
Runways 2
Magnetic Variation 7.296° W

METAR

GOOY 271800Z 34014KT CAVOK 23/20 Q1011

Decode

TAF

TAF GOOY 271730Z 2718/2824 34013KT CAVOK= TAF GBYD 271730Z 2718/2824 26008KT CAVOK

Decode

Destination Runways

ID Width Length Bearing (true) Bearing (mag) Surface Threshold Offset Overrun Length
03 98 ft / 30 m 4,921 ft / 1,500 m 22.31° 29.61° Asphalt 0 ft / 0 m 98 ft / 30 m
18 148 ft / 45 m 11,511 ft / 3,509 m 172.57° 179.87° Asphalt 525 ft / 160 m 197 ft / 60 m
21 98 ft / 30 m 4,921 ft / 1,500 m 202.31° 209.61° Asphalt 0 ft / 0 m 1,590 ft / 485 m
36 148 ft / 45 m 11,511 ft / 3,509 m 352.57° 359.87° Asphalt 0 ft / 0 m 197 ft / 60 m

Approach Navaids

Runway Type Ident Frequency Range Bearing (true) Bearing (mag) Slope Elevation
36 Localiser YF 110.30 MHz 18 nm / 33 km 352.33° 359.62° - 65 ft / 20 m (AMSL)
36 Glidescope YF 110.30 MHz 10 nm / 19 km 352.57° 359.87° 3.01° 73 ft / 22 m (AMSL)
36 DME YF 110.30 MHz 18 nm / 33 km - - - 73 ft / 22 m (AMSL)

Popular Alternatives